sensor_id;sensor_type;location;lat;lon;timestamp;pressure;altitude;pressure_sealevel;temperature
15626;BMP180;7912;51.376;6.126;2023-12-28T00:12:50;100662.00;;;14.00
15626;BMP180;7912;51.376;6.126;2023-12-28T00:16:27;100654.00;;;13.90
15626;BMP180;7912;51.376;6.126;2023-12-28T00:19:42;100649.00;;;14.00
15626;BMP180;7912;51.376;6.126;2023-12-28T00:22:49;100664.00;;;14.00
15626;BMP180;7912;51.376;6.126;2023-12-28T00:29:33;100674.00;;;14.00
15626;BMP180;7912;51.376;6.126;2023-12-28T00:32:44;100676.00;;;14.00
15626;BMP180;7912;51.376;6.126;2023-12-28T00:35:46;100689.00;;;14.10
15626;BMP180;7912;51.376;6.126;2023-12-28T00:38:20;100684.00;;;14.10
15626;BMP180;7912;51.376;6.126;2023-12-28T00:40:47;100697.00;;;14.10
15626;BMP180;7912;51.376;6.126;2023-12-28T00:43:15;100693.00;;;14.10
15626;BMP180;7912;51.376;6.126;2023-12-28T00:45:42;100679.00;;;14.00
15626;BMP180;7912;51.376;6.126;2023-12-28T00:48:10;100695.00;;;14.10
15626;BMP180;7912;51.376;6.126;2023-12-28T00:50:37;100702.00;;;14.10
15626;BMP180;7912;51.376;6.126;2023-12-28T00:53:04;100707.00;;;14.10
15626;BMP180;7912;51.376;6.126;2023-12-28T00:55:32;100696.00;;;14.10
15626;BMP180;7912;51.376;6.126;2023-12-28T00:57:59;100704.00;;;14.10
15626;BMP180;7912;51.376;6.126;2023-12-28T01:00:27;100691.00;;;14.20
15626;BMP180;7912;51.376;6.126;2023-12-28T01:06:40;100690.00;;;14.20
15626;BMP180;7912;51.376;6.126;2023-12-28T01:09:08;100695.00;;;14.20
15626;BMP180;7912;51.376;6.126;2023-12-28T01:11:35;100675.00;;;14.20
15626;BMP180;7912;51.376;6.126;2023-12-28T01:14:02;100698.00;;;14.30
15626;BMP180;7912;51.376;6.126;2023-12-28T01:16:56;100689.00;;;14.30
15626;BMP180;7912;51.376;6.126;2023-12-28T01:20:34;100698.00;;;14.20
15626;BMP180;7912;51.376;6.126;2023-12-28T01:27:09;100695.00;;;14.10
15626;BMP180;7912;51.376;6.126;2023-12-28T01:31:00;100705.00;;;14.10
15626;BMP180;7912;51.376;6.126;2023-12-28T01:34:15;100715.00;;;14.10
15626;BMP180;7912;51.376;6.126;2023-12-28T01:37:12;100703.00;;;14.10
15626;BMP180;7912;51.376;6.126;2023-12-28T01:40:26;100712.00;;;14.10
15626;BMP180;7912;51.376;6.126;2023-12-28T01:43:33;100726.00;;;14.10
15626;BMP180;7912;51.376;6.126;2023-12-28T01:46:10;100724.00;;;14.20
15626;BMP180;7912;51.376;6.126;2023-12-28T01:48:56;100718.00;;;14.20
15626;BMP180;7912;51.376;6.126;2023-12-28T01:51:49;100740.00;;;14.20
15626;BMP180;7912;51.376;6.126;2023-12-28T01:54:21;100728.00;;;14.20
15626;BMP180;7912;51.376;6.126;2023-12-28T01:57:05;100736.00;;;14.20
15626;BMP180;7912;51.376;6.126;2023-12-28T01:59:59;100729.00;;;14.10
15626;BMP180;7912;51.376;6.126;2023-12-28T02:02:59;100741.00;;;14.10
15626;BMP180;7912;51.376;6.126;2023-12-28T02:05:51;100736.00;;;14.00
15626;BMP180;7912;51.376;6.126;2023-12-28T02:08:50;100750.00;;;14.00
15626;BMP180;7912;51.376;6.126;2023-12-28T02:11:44;100735.00;;;14.00
15626;BMP180;7912;51.376;6.126;2023-12-28T02:14:32;100737.00;;;14.00
15626;BMP180;7912;51.376;6.126;2023-12-28T02:18:07;100734.00;;;13.90
15626;BMP180;7912;51.376;6.126;2023-12-28T02:20:54;100739.00;;;13.90
15626;BMP180;7912;51.376;6.126;2023-12-28T02:23:22;100734.00;;;13.90
15626;BMP180;7912;51.376;6.126;2023-12-28T02:25:50;100730.00;;;13.90
15626;BMP180;7912;51.376;6.126;2023-12-28T02:28:17;100745.00;;;13.90
15626;BMP180;7912;51.376;6.126;2023-12-28T02:30:44;100733.00;;;13.90
15626;BMP180;7912;51.376;6.126;2023-12-28T02:33:37;100733.00;;;13.90
15626;BMP180;7912;51.376;6.126;2023-12-28T02:36:10;100738.00;;;13.90
15626;BMP180;7912;51.376;6.126;2023-12-28T02:38:40;100724.00;;;14.00
15626;BMP180;7912;51.376;6.126;2023-12-28T02:41:09;100727.00;;;13.90
15626;BMP180;7912;51.376;6.126;2023-12-28T02:43:36;100723.00;;;13.90
15626;BMP180;7912;51.376;6.126;2023-12-28T02:46:05;100733.00;;;13.90
15626;BMP180;7912;51.376;6.126;2023-12-28T02:48:33;100731.00;;;13.90
15626;BMP180;7912;51.376;6.126;2023-12-28T02:51:01;100735.00;;;13.90
15626;BMP180;7912;51.376;6.126;2023-12-28T02:53:48;100732.00;;;13.90
15626;BMP180;7912;51.376;6.126;2023-12-28T02:56:15;100733.00;;;13.80
15626;BMP180;7912;51.376;6.126;2023-12-28T02:58:42;100738.00;;;13.80
15626;BMP180;7912;51.376;6.126;2023-12-28T03:01:09;100730.00;;;13.80
15626;BMP180;7912;51.376;6.126;2023-12-28T03:04:14;100725.00;;;13.80
15626;BMP180;7912;51.376;6.126;2023-12-28T03:06:42;100730.00;;;13.70
15626;BMP180;7912;51.376;6.126;2023-12-28T03:09:13;100727.00;;;13.80
15626;BMP180;7912;51.376;6.126;2023-12-28T03:11:40;100716.00;;;13.70
15626;BMP180;7912;51.376;6.126;2023-12-28T03:14:08;100722.00;;;13.70
15626;BMP180;7912;51.376;6.126;2023-12-28T03:16:35;100713.00;;;13.70
15626;BMP180;7912;51.376;6.126;2023-12-28T03:19:02;100705.00;;;13.70
15626;BMP180;7912;51.376;6.126;2023-12-28T03:21:30;100714.00;;;13.70
15626;BMP180;7912;51.376;6.126;2023-12-28T03:23:57;100714.00;;;13.70
15626;BMP180;7912;51.376;6.126;2023-12-28T03:26:24;100731.00;;;13.70
15626;BMP180;7912;51.376;6.126;2023-12-28T03:28:51;100720.00;;;13.70
15626;BMP180;7912;51.376;6.126;2023-12-28T03:31:19;100724.00;;;13.60
15626;BMP180;7912;51.376;6.126;2023-12-28T03:33:46;100725.00;;;13.60
15626;BMP180;7912;51.376;6.126;2023-12-28T03:36:20;100719.00;;;13.60
15626;BMP180;7912;51.376;6.126;2023-12-28T03:38:48;100715.00;;;13.60
15626;BMP180;7912;51.376;6.126;2023-12-28T03:41:19;100727.00;;;13.60
15626;BMP180;7912;51.376;6.126;2023-12-28T03:43:47;100720.00;;;13.60
15626;BMP180;7912;51.376;6.126;2023-12-28T03:46:15;100719.00;;;13.60
15626;BMP180;7912;51.376;6.126;2023-12-28T03:48:42;100719.00;;;13.60
15626;BMP180;7912;51.376;6.126;2023-12-28T03:51:14;100726.00;;;13.60
15626;BMP180;7912;51.376;6.126;2023-12-28T03:53:42;100731.00;;;13.70
15626;BMP180;7912;51.376;6.126;2023-12-28T03:56:24;100737.00;;;13.70
15626;BMP180;7912;51.376;6.126;2023-12-28T03:58:52;100730.00;;;13.70
15626;BMP180;7912;51.376;6.126;2023-12-28T04:01:22;100720.00;;;13.80
15626;BMP180;7912;51.376;6.126;2023-12-28T04:03:52;100736.00;;;13.80
15626;BMP180;7912;51.376;6.126;2023-12-28T04:06:19;100718.00;;;13.70
15626;BMP180;7912;51.376;6.126;2023-12-28T04:08:46;100737.00;;;13.70
15626;BMP180;7912;51.376;6.126;2023-12-28T04:11:16;100730.00;;;13.70
15626;BMP180;7912;51.376;6.126;2023-12-28T04:13:47;100729.00;;;13.70
15626;BMP180;7912;51.376;6.126;2023-12-28T04:16:15;100746.00;;;13.80
15626;BMP180;7912;51.376;6.126;2023-12-28T04:18:43;100734.00;;;13.70
15626;BMP180;7912;51.376;6.126;2023-12-28T04:21:14;100746.00;;;13.80
15626;BMP180;7912;51.376;6.126;2023-12-28T04:23:41;100721.00;;;13.80
15626;BMP180;7912;51.376;6.126;2023-12-28T04:26:09;100736.00;;;13.80
15626;BMP180;7912;51.376;6.126;2023-12-28T04:28:36;100729.00;;;13.80
15626;BMP180;7912;51.376;6.126;2023-12-28T04:31:06;100728.00;;;13.80
15626;BMP180;7912;51.376;6.126;2023-12-28T04:37:43;100723.00;;;13.80
15626;BMP180;7912;51.376;6.126;2023-12-28T04:40:11;100730.00;;;13.80
15626;BMP180;7912;51.376;6.126;2023-12-28T04:42:41;100721.00;;;13.80
15626;BMP180;7912;51.376;6.126;2023-12-28T04:45:09;100716.00;;;13.80
15626;BMP180;7912;51.376;6.126;2023-12-28T04:47:37;100730.00;;;13.80
15626;BMP180;7912;51.376;6.126;2023-12-28T04:50:05;100712.00;;;13.80
15626;BMP180;7912;51.376;6.126;2023-12-28T04:52:33;100710.00;;;13.90
15626;BMP180;7912;51.376;6.126;2023-12-28T04:55:01;100707.00;;;13.90
15626;BMP180;7912;51.376;6.126;2023-12-28T04:57:28;100705.00;;;13.90
15626;BMP180;7912;51.376;6.126;2023-12-28T04:59:55;100707.00;;;13.90
15626;BMP180;7912;51.376;6.126;2023-12-28T05:02:23;100708.00;;;13.90
15626;BMP180;7912;51.376;6.126;2023-12-28T05:04:55;100710.00;;;13.90
15626;BMP180;7912;51.376;6.126;2023-12-28T05:07:22;100726.00;;;13.90
15626;BMP180;7912;51.376;6.126;2023-12-28T05:09:49;100709.00;;;13.90
15626;BMP180;7912;51.376;6.126;2023-12-28T05:12:17;100709.00;;;13.90
15626;BMP180;7912;51.376;6.126;2023-12-28T05:14:47;100708.00;;;13.90
15626;BMP180;7912;51.376;6.126;2023-12-28T05:17:17;100712.00;;;13.90
15626;BMP180;7912;51.376;6.126;2023-12-28T05:19:44;100722.00;;;13.90
15626;BMP180;7912;51.376;6.126;2023-12-28T05:22:12;100720.00;;;13.90
15626;BMP180;7912;51.376;6.126;2023-12-28T05:24:39;100731.00;;;13.90
15626;BMP180;7912;51.376;6.126;2023-12-28T05:27:06;100737.00;;;13.90
15626;BMP180;7912;51.376;6.126;2023-12-28T05:29:34;100745.00;;;13.90
15626;BMP180;7912;51.376;6.126;2023-12-28T05:32:01;100739.00;;;13.90
15626;BMP180;7912;51.376;6.126;2023-12-28T05:34:28;100742.00;;;13.90
15626;BMP180;7912;51.376;6.126;2023-12-28T05:36:56;100753.00;;;13.90
15626;BMP180;7912;51.376;6.126;2023-12-28T05:39:23;100748.00;;;13.90
15626;BMP180;7912;51.376;6.126;2023-12-28T05:41:50;100763.00;;;13.90
15626;BMP180;7912;51.376;6.126;2023-12-28T05:44:18;100758.00;;;14.00
15626;BMP180;7912;51.376;6.126;2023-12-28T05:46:45;100761.00;;;14.00
15626;BMP180;7912;51.376;6.126;2023-12-28T05:49:12;100761.00;;;14.00
15626;BMP180;7912;51.376;6.126;2023-12-28T05:51:40;100754.00;;;14.00
15626;BMP180;7912;51.376;6.126;2023-12-28T05:54:08;100759.00;;;14.10
15626;BMP180;7912;51.376;6.126;2023-12-28T05:56:36;100762.00;;;14.10
15626;BMP180;7912;51.376;6.126;2023-12-28T05:59:03;100771.00;;;14.10
15626;BMP180;7912;51.376;6.126;2023-12-28T06:01:30;100760.00;;;14.10
15626;BMP180;7912;51.376;6.126;2023-12-28T06:03:58;100773.00;;;14.10
15626;BMP180;7912;51.376;6.126;2023-12-28T06:06:25;100772.00;;;14.20
15626;BMP180;7912;51.376;6.126;2023-12-28T06:08:53;100766.00;;;14.20
15626;BMP180;7912;51.376;6.126;2023-12-28T06:11:20;100763.00;;;14.20
15626;BMP180;7912;51.376;6.126;2023-12-28T06:13:47;100755.00;;;14.20
15626;BMP180;7912;51.376;6.126;2023-12-28T06:16:18;100754.00;;;14.10
15626;BMP180;7912;51.376;6.126;2023-12-28T06:18:45;100761.00;;;14.10
15626;BMP180;7912;51.376;6.126;2023-12-28T06:21:12;100769.00;;;14.00
15626;BMP180;7912;51.376;6.126;2023-12-28T06:23:40;100776.00;;;14.00
15626;BMP180;7912;51.376;6.126;2023-12-28T06:26:07;100761.00;;;14.00
15626;BMP180;7912;51.376;6.126;2023-12-28T06:28:37;100771.00;;;14.00
15626;BMP180;7912;51.376;6.126;2023-12-28T06:31:05;100772.00;;;14.00
15626;BMP180;7912;51.376;6.126;2023-12-28T06:33:32;100786.00;;;14.00
15626;BMP180;7912;51.376;6.126;2023-12-28T06:36:08;100787.00;;;14.10
15626;BMP180;7912;51.376;6.126;2023-12-28T06:38:36;100783.00;;;14.10
15626;BMP180;7912;51.376;6.126;2023-12-28T06:41:11;100775.00;;;14.10
15626;BMP180;7912;51.376;6.126;2023-12-28T06:43:39;100779.00;;;14.20
15626;BMP180;7912;51.376;6.126;2023-12-28T06:46:08;100780.00;;;14.20
15626;BMP180;7912;51.376;6.126;2023-12-28T06:48:36;100773.00;;;14.20
15626;BMP180;7912;51.376;6.126;2023-12-28T06:51:08;100756.00;;;14.20
15626;BMP180;7912;51.376;6.126;2023-12-28T06:53:36;100769.00;;;14.20
15626;BMP180;7912;51.376;6.126;2023-12-28T06:56:03;100770.00;;;14.20
15626;BMP180;7912;51.376;6.126;2023-12-28T06:58:32;100778.00;;;14.20
15626;BMP180;7912;51.376;6.126;2023-12-28T07:01:03;100779.00;;;14.20
15626;BMP180;7912;51.376;6.126;2023-12-28T07:03:32;100789.00;;;14.20
15626;BMP180;7912;51.376;6.126;2023-12-28T07:06:00;100793.00;;;14.30
15626;BMP180;7912;51.376;6.126;2023-12-28T07:08:27;100780.00;;;14.30
15626;BMP180;7912;51.376;6.126;2023-12-28T07:10:55;100794.00;;;14.30
15626;BMP180;7912;51.376;6.126;2023-12-28T07:13:22;100792.00;;;14.30
15626;BMP180;7912;51.376;6.126;2023-12-28T07:15:49;100806.00;;;14.30
15626;BMP180;7912;51.376;6.126;2023-12-28T07:18:17;100807.00;;;14.40
15626;BMP180;7912;51.376;6.126;2023-12-28T07:20:44;100808.00;;;14.40
15626;BMP180;7912;51.376;6.126;2023-12-28T07:23:12;100802.00;;;14.40
15626;BMP180;7912;51.376;6.126;2023-12-28T07:25:40;100815.00;;;14.40
15626;BMP180;7912;51.376;6.126;2023-12-28T07:28:07;100817.00;;;14.40
15626;BMP180;7912;51.376;6.126;2023-12-28T07:30:36;100822.00;;;14.40
15626;BMP180;7912;51.376;6.126;2023-12-28T07:33:04;100846.00;;;14.40
15626;BMP180;7912;51.376;6.126;2023-12-28T07:35:31;100834.00;;;14.50
15626;BMP180;7912;51.376;6.126;2023-12-28T07:37:59;100827.00;;;14.50
15626;BMP180;7912;51.376;6.126;2023-12-28T07:40:27;100845.00;;;14.50
15626;BMP180;7912;51.376;6.126;2023-12-28T07:42:54;100847.00;;;14.50
15626;BMP180;7912;51.376;6.126;2023-12-28T07:45:24;100853.00;;;14.50
15626;BMP180;7912;51.376;6.126;2023-12-28T07:47:54;100830.00;;;14.60
15626;BMP180;7912;51.376;6.126;2023-12-28T07:50:22;100854.00;;;14.60
15626;BMP180;7912;51.376;6.126;2023-12-28T07:52:49;100844.00;;;14.60
15626;BMP180;7912;51.376;6.126;2023-12-28T07:55:16;100850.00;;;14.60
15626;BMP180;7912;51.376;6.126;2023-12-28T07:57:44;100861.00;;;14.60
15626;BMP180;7912;51.376;6.126;2023-12-28T08:00:12;100845.00;;;14.60
15626;BMP180;7912;51.376;6.126;2023-12-28T08:02:41;100855.00;;;14.60
15626;BMP180;7912;51.376;6.126;2023-12-28T08:05:28;100856.00;;;14.60
15626;BMP180;7912;51.376;6.126;2023-12-28T08:07:58;100856.00;;;14.50
15626;BMP180;7912;51.376;6.126;2023-12-28T08:10:29;100837.00;;;14.50
15626;BMP180;7912;51.376;6.126;2023-12-28T08:12:56;100864.00;;;14.50
15626;BMP180;7912;51.376;6.126;2023-12-28T08:15:24;100865.00;;;14.50
15626;BMP180;7912;51.376;6.126;2023-12-28T08:17:54;100863.00;;;14.60
15626;BMP180;7912;51.376;6.126;2023-12-28T08:20:21;100846.00;;;14.50
15626;BMP180;7912;51.376;6.126;2023-12-28T08:22:50;100859.00;;;14.50
15626;BMP180;7912;51.376;6.126;2023-12-28T08:25:36;100851.00;;;14.50
15626;BMP180;7912;51.376;6.126;2023-12-28T08:32:13;100881.00;;;14.50
15626;BMP180;7912;51.376;6.126;2023-12-28T08:34:43;100870.00;;;14.50
15626;BMP180;7912;51.376;6.126;2023-12-28T08:37:10;100878.00;;;14.50
15626;BMP180;7912;51.376;6.126;2023-12-28T08:39:39;100871.00;;;14.60
15626;BMP180;7912;51.376;6.126;2023-12-28T08:46:17;100884.00;;;14.60
15626;BMP180;7912;51.376;6.126;2023-12-28T08:48:44;100870.00;;;14.60
15626;BMP180;7912;51.376;6.126;2023-12-28T08:51:12;100873.00;;;14.60
15626;BMP180;7912;51.376;6.126;2023-12-28T08:53:45;100858.00;;;14.60
15626;BMP180;7912;51.376;6.126;2023-12-28T08:56:20;100879.00;;;14.60
15626;BMP180;7912;51.376;6.126;2023-12-28T08:58:49;100891.00;;;14.70
15626;BMP180;7912;51.376;6.126;2023-12-28T09:01:24;100890.00;;;14.70
15626;BMP180;7912;51.376;6.126;2023-12-28T09:03:58;100886.00;;;14.70
15626;BMP180;7912;51.376;6.126;2023-12-28T09:06:27;100907.00;;;14.80
15626;BMP180;7912;51.376;6.126;2023-12-28T09:17:14;100895.00;;;14.80
15626;BMP180;7912;51.376;6.126;2023-12-28T09:19:41;100900.00;;;14.80
15626;BMP180;7912;51.376;6.126;2023-12-28T09:22:09;100901.00;;;14.90
15626;BMP180;7912;51.376;6.126;2023-12-28T09:24:55;100898.00;;;15.00
15626;BMP180;7912;51.376;6.126;2023-12-28T09:27:22;100910.00;;;15.10
15626;BMP180;7912;51.376;6.126;2023-12-28T09:29:50;100909.00;;;15.10
15626;BMP180;7912;51.376;6.126;2023-12-28T09:32:17;100895.00;;;15.20
15626;BMP180;7912;51.376;6.126;2023-12-28T09:34:44;100902.00;;;15.20
15626;BMP180;7912;51.376;6.126;2023-12-28T09:40:37;100922.00;;;15.30
15626;BMP180;7912;51.376;6.126;2023-12-28T09:45:34;100919.00;;;15.30
15626;BMP180;7912;51.376;6.126;2023-12-28T09:48:03;100915.00;;;15.40
15626;BMP180;7912;51.376;6.126;2023-12-28T09:50:32;100922.00;;;15.40
15626;BMP180;7912;51.376;6.126;2023-12-28T09:52:59;100926.00;;;15.40
15626;BMP180;7912;51.376;6.126;2023-12-28T09:55:27;100927.00;;;15.40
15626;BMP180;7912;51.376;6.126;2023-12-28T09:57:57;100931.00;;;15.50
15626;BMP180;7912;51.376;6.126;2023-12-28T10:00:27;100916.00;;;15.50
15626;BMP180;7912;51.376;6.126;2023-12-28T10:02:54;100922.00;;;15.50
15626;BMP180;7912;51.376;6.126;2023-12-28T10:05:22;100912.00;;;15.50
15626;BMP180;7912;51.376;6.126;2023-12-28T10:07:50;100924.00;;;15.50
15626;BMP180;7912;51.376;6.126;2023-12-28T10:10:20;100920.00;;;15.50
15626;BMP180;7912;51.376;6.126;2023-12-28T10:12:49;100918.00;;;15.50
15626;BMP180;7912;51.376;6.126;2023-12-28T10:15:16;100922.00;;;15.50
15626;BMP180;7912;51.376;6.126;2023-12-28T10:17:45;100918.00;;;15.60
15626;BMP180;7912;51.376;6.126;2023-12-28T10:20:14;100934.00;;;15.60
15626;BMP180;7912;51.376;6.126;2023-12-28T10:22:41;100924.00;;;15.60
15626;BMP180;7912;51.376;6.126;2023-12-28T10:25:09;100926.00;;;15.60
15626;BMP180;7912;51.376;6.126;2023-12-28T10:27:40;100924.00;;;15.60
15626;BMP180;7912;51.376;6.126;2023-12-28T10:30:10;100926.00;;;15.70
15626;BMP180;7912;51.376;6.126;2023-12-28T10:32:41;100914.00;;;15.70
15626;BMP180;7912;51.376;6.126;2023-12-28T10:35:09;100920.00;;;15.80
15626;BMP180;7912;51.376;6.126;2023-12-28T10:37:40;100909.00;;;15.80
15626;BMP180;7912;51.376;6.126;2023-12-28T10:40:15;100933.00;;;15.90
15626;BMP180;7912;51.376;6.126;2023-12-28T10:42:57;100919.00;;;15.90
15626;BMP180;7912;51.376;6.126;2023-12-28T10:45:32;100917.00;;;15.90
15626;BMP180;7912;51.376;6.126;2023-12-28T10:48:10;100924.00;;;15.90
15626;BMP180;7912;51.376;6.126;2023-12-28T10:50:41;100926.00;;;15.90
15626;BMP180;7912;51.376;6.126;2023-12-28T10:56:45;100917.00;;;15.90
15626;BMP180;7912;51.376;6.126;2023-12-28T10:59:30;100918.00;;;15.90
15626;BMP180;7912;51.376;6.126;2023-12-28T11:02:01;100908.00;;;15.90
15626;BMP180;7912;51.376;6.126;2023-12-28T11:04:48;100922.00;;;15.90
15626;BMP180;7912;51.376;6.126;2023-12-28T11:07:19;100907.00;;;15.90
15626;BMP180;7912;51.376;6.126;2023-12-28T11:09:48;100911.00;;;15.90
15626;BMP180;7912;51.376;6.126;2023-12-28T11:12:16;100908.00;;;15.90
15626;BMP180;7912;51.376;6.126;2023-12-28T11:14:48;100897.00;;;15.90
15626;BMP180;7912;51.376;6.126;2023-12-28T11:17:16;100907.00;;;16.00
15626;BMP180;7912;51.376;6.126;2023-12-28T11:19:44;100894.00;;;16.00
15626;BMP180;7912;51.376;6.126;2023-12-28T11:22:12;100891.00;;;16.00
15626;BMP180;7912;51.376;6.126;2023-12-28T11:24:40;100906.00;;;16.00
15626;BMP180;7912;51.376;6.126;2023-12-28T11:27:08;100897.00;;;16.00
15626;BMP180;7912;51.376;6.126;2023-12-28T11:29:37;100901.00;;;16.00
15626;BMP180;7912;51.376;6.126;2023-12-28T11:32:05;100902.00;;;16.00
15626;BMP180;7912;51.376;6.126;2023-12-28T11:34:32;100892.00;;;16.00
15626;BMP180;7912;51.376;6.126;2023-12-28T11:37:12;100899.00;;;16.00
15626;BMP180;7912;51.376;6.126;2023-12-28T11:39:42;100883.00;;;16.10
15626;BMP180;7912;51.376;6.126;2023-12-28T11:42:11;100882.00;;;16.10
15626;BMP180;7912;51.376;6.126;2023-12-28T11:44:43;100889.00;;;16.10
15626;BMP180;7912;51.376;6.126;2023-12-28T11:47:21;100879.00;;;16.10
15626;BMP180;7912;51.376;6.126;2023-12-28T11:49:49;100874.00;;;16.10
15626;BMP180;7912;51.376;6.126;2023-12-28T11:52:32;100862.00;;;16.10
15626;BMP180;7912;51.376;6.126;2023-12-28T11:55:00;100869.00;;;16.20
15626;BMP180;7912;51.376;6.126;2023-12-28T11:57:28;100868.00;;;16.20
15626;BMP180;7912;51.376;6.126;2023-12-28T12:00:00;100863.00;;;16.20
15626;BMP180;7912;51.376;6.126;2023-12-28T12:02:29;100855.00;;;16.20
15626;BMP180;7912;51.376;6.126;2023-12-28T12:04:56;100860.00;;;16.20
15626;BMP180;7912;51.376;6.126;2023-12-28T12:07:25;100846.00;;;16.20
15626;BMP180;7912;51.376;6.126;2023-12-28T12:09:59;100855.00;;;16.30
15626;BMP180;7912;51.376;6.126;2023-12-28T12:12:28;100838.00;;;16.30
15626;BMP180;7912;51.376;6.126;2023-12-28T12:14:56;100838.00;;;16.30
15626;BMP180;7912;51.376;6.126;2023-12-28T12:17:24;100848.00;;;16.30
15626;BMP180;7912;51.376;6.126;2023-12-28T12:19:52;100837.00;;;16.30
15626;BMP180;7912;51.376;6.126;2023-12-28T12:22:22;100848.00;;;16.30
15626;BMP180;7912;51.376;6.126;2023-12-28T12:24:58;100835.00;;;16.30
15626;BMP180;7912;51.376;6.126;2023-12-28T12:27:27;100833.00;;;16.30
15626;BMP180;7912;51.376;6.126;2023-12-28T12:29:54;100827.00;;;16.20
15626;BMP180;7912;51.376;6.126;2023-12-28T12:32:22;100820.00;;;16.30
15626;BMP180;7912;51.376;6.126;2023-12-28T12:34:50;100823.00;;;16.30
15626;BMP180;7912;51.376;6.126;2023-12-28T12:37:18;100819.00;;;16.30
15626;BMP180;7912;51.376;6.126;2023-12-28T12:39:46;100832.00;;;16.30
15626;BMP180;7912;51.376;6.126;2023-12-28T12:42:14;100844.00;;;16.40
15626;BMP180;7912;51.376;6.126;2023-12-28T12:44:41;100831.00;;;16.40
15626;BMP180;7912;51.376;6.126;2023-12-28T12:47:08;100816.00;;;16.30
15626;BMP180;7912;51.376;6.126;2023-12-28T12:49:36;100830.00;;;16.30
15626;BMP180;7912;51.376;6.126;2023-12-28T12:52:07;100831.00;;;16.30
15626;BMP180;7912;51.376;6.126;2023-12-28T12:54:34;100830.00;;;16.20
15626;BMP180;7912;51.376;6.126;2023-12-28T12:57:02;100821.00;;;16.20
15626;BMP180;7912;51.376;6.126;2023-12-28T12:59:30;100812.00;;;16.20
15626;BMP180;7912;51.376;6.126;2023-12-28T13:01:58;100820.00;;;16.20
15626;BMP180;7912;51.376;6.126;2023-12-28T13:04:27;100835.00;;;16.10
15626;BMP180;7912;51.376;6.126;2023-12-28T13:06:54;100835.00;;;16.20
15626;BMP180;7912;51.376;6.126;2023-12-28T13:09:21;100816.00;;;16.20
15626;BMP180;7912;51.376;6.126;2023-12-28T13:11:49;100816.00;;;16.20
15626;BMP180;7912;51.376;6.126;2023-12-28T13:14:17;100824.00;;;16.20
15626;BMP180;7912;51.376;6.126;2023-12-28T13:16:44;100803.00;;;16.20
15626;BMP180;7912;51.376;6.126;2023-12-28T13:19:12;100799.00;;;16.20
15626;BMP180;7912;51.376;6.126;2023-12-28T13:21:39;100806.00;;;16.30
15626;BMP180;7912;51.376;6.126;2023-12-28T13:24:07;100806.00;;;16.30
15626;BMP180;7912;51.376;6.126;2023-12-28T13:26:53;100804.00;;;16.30
15626;BMP180;7912;51.376;6.126;2023-12-28T13:29:20;100810.00;;;16.30
15626;BMP180;7912;51.376;6.126;2023-12-28T13:31:47;100800.00;;;16.40
15626;BMP180;7912;51.376;6.126;2023-12-28T13:34:18;100804.00;;;16.40
15626;BMP180;7912;51.376;6.126;2023-12-28T13:36:46;100803.00;;;16.40
15626;BMP180;7912;51.376;6.126;2023-12-28T13:39:13;100814.00;;;16.40
15626;BMP180;7912;51.376;6.126;2023-12-28T13:41:41;100799.00;;;16.40
15626;BMP180;7912;51.376;6.126;2023-12-28T13:44:08;100788.00;;;16.30
15626;BMP180;7912;51.376;6.126;2023-12-28T13:46:39;100797.00;;;16.30
15626;BMP180;7912;51.376;6.126;2023-12-28T13:49:06;100802.00;;;16.30
15626;BMP180;7912;51.376;6.126;2023-12-28T13:51:35;100805.00;;;16.20
15626;BMP180;7912;51.376;6.126;2023-12-28T13:54:03;100803.00;;;16.20
15626;BMP180;7912;51.376;6.126;2023-12-28T13:56:32;100787.00;;;16.20
15626;BMP180;7912;51.376;6.126;2023-12-28T13:59:01;100794.00;;;16.10
15626;BMP180;7912;51.376;6.126;2023-12-28T14:01:28;100792.00;;;16.20
15626;BMP180;7912;51.376;6.126;2023-12-28T14:03:55;100795.00;;;16.10
15626;BMP180;7912;51.376;6.126;2023-12-28T14:06:24;100793.00;;;16.10
15626;BMP180;7912;51.376;6.126;2023-12-28T14:08:51;100800.00;;;16.10
15626;BMP180;7912;51.376;6.126;2023-12-28T14:11:18;100803.00;;;16.00
15626;BMP180;7912;51.376;6.126;2023-12-28T14:13:46;100790.00;;;16.00
15626;BMP180;7912;51.376;6.126;2023-12-28T14:16:13;100802.00;;;16.00
15626;BMP180;7912;51.376;6.126;2023-12-28T14:18:40;100810.00;;;16.00
15626;BMP180;7912;51.376;6.126;2023-12-28T14:21:09;100804.00;;;15.90
15626;BMP180;7912;51.376;6.126;2023-12-28T14:23:37;100811.00;;;15.90
15626;BMP180;7912;51.376;6.126;2023-12-28T14:26:13;100815.00;;;15.90
15626;BMP180;7912;51.376;6.126;2023-12-28T14:28:44;100818.00;;;15.90
15626;BMP180;7912;51.376;6.126;2023-12-28T14:31:13;100810.00;;;15.90
15626;BMP180;7912;51.376;6.126;2023-12-28T14:33:40;100808.00;;;15.80
15626;BMP180;7912;51.376;6.126;2023-12-28T14:36:20;100808.00;;;15.80
15626;BMP180;7912;51.376;6.126;2023-12-28T14:38:49;100810.00;;;15.80
15626;BMP180;7912;51.376;6.126;2023-12-28T14:41:16;100808.00;;;15.70
15626;BMP180;7912;51.376;6.126;2023-12-28T14:43:43;100799.00;;;15.70
15626;BMP180;7912;51.376;6.126;2023-12-28T14:46:10;100808.00;;;15.60
15626;BMP180;7912;51.376;6.126;2023-12-28T14:48:38;100807.00;;;15.60
15626;BMP180;7912;51.376;6.126;2023-12-28T14:51:05;100815.00;;;15.60
15626;BMP180;7912;51.376;6.126;2023-12-28T14:53:32;100804.00;;;15.60
15626;BMP180;7912;51.376;6.126;2023-12-28T14:56:00;100799.00;;;15.60
15626;BMP180;7912;51.376;6.126;2023-12-28T14:58:27;100804.00;;;15.50
15626;BMP180;7912;51.376;6.126;2023-12-28T15:00:54;100805.00;;;15.50
15626;BMP180;7912;51.376;6.126;2023-12-28T15:03:22;100792.00;;;15.50
15626;BMP180;7912;51.376;6.126;2023-12-28T15:05:51;100791.00;;;15.50
15626;BMP180;7912;51.376;6.126;2023-12-28T15:08:19;100803.00;;;15.50
15626;BMP180;7912;51.376;6.126;2023-12-28T15:10:46;100798.00;;;15.50
15626;BMP180;7912;51.376;6.126;2023-12-28T15:13:15;100799.00;;;15.50
15626;BMP180;7912;51.376;6.126;2023-12-28T15:15:44;100798.00;;;15.50
15626;BMP180;7912;51.376;6.126;2023-12-28T15:18:12;100793.00;;;15.50
15626;BMP180;7912;51.376;6.126;2023-12-28T15:20:40;100795.00;;;15.50
15626;BMP180;7912;51.376;6.126;2023-12-28T15:23:08;100795.00;;;15.40
15626;BMP180;7912;51.376;6.126;2023-12-28T15:25:35;100794.00;;;15.40
15626;BMP180;7912;51.376;6.126;2023-12-28T15:28:04;100798.00;;;15.40